Time;durP1;ratioP1;P1;durP2;ratioP2;P2;SDS_P1;SDS_P2;PMS_P1;PMS_P2;Temp;Humidity;BMP_temperature;BMP_pressure;BME280_temperature;BME280_humidity;BME280_pressure;Samples;Min_cycle;Max_cycle;Signal;HPM_P1;HPM_P2
2023/06/15 00:00:18;;;;;;;3.17;2.72;;;20.60;91.50;;;;;;7387535;19;20496;-70
2023/06/15 00:02:43;;;;;;;4.80;3.05;;;20.60;91.20;;;;;;7386381;19;20185;-69
2023/06/15 00:05:09;;;;;;;4.15;2.75;;;20.70;91.60;;;;;;7385677;19;20138;-69
2023/06/15 00:07:35;;;;;;;5.82;3.42;;;20.70;91.40;;;;;;7384673;19;20293;-69
2023/06/15 00:10:01;;;;;;;3.90;2.92;;;20.80;91.50;;;;;;7382435;19;20130;-70
2023/06/15 00:12:27;;;;;;;3.60;2.78;;;20.90;91.60;;;;;;7384891;19;20141;-68
2023/06/15 00:14:53;;;;;;;4.15;3.20;;;20.80;91.70;;;;;;7378797;19;20139;-69
2023/06/15 00:17:18;;;;;;;4.50;2.90;;;20.80;91.80;;;;;;7384261;19;20753;-69
2023/06/15 00:19:44;;;;;;;4.25;3.10;;;20.80;92.00;;;;;;7384453;19;20788;-69
2023/06/15 00:22:14;;;;;;;4.57;3.28;;;20.80;92.00;;;;;;7385015;19;20175;-70
2023/06/15 00:24:41;;;;;;;4.95;2.80;;;20.80;92.00;;;;;;7385444;19;20222;-71
2023/06/15 00:27:09;;;;;;;6.50;3.05;;;20.80;92.00;;;;;;7384762;19;20147;-69
2023/06/15 00:29:35;;;;;;;4.90;3.50;;;20.80;92.00;;;;;;7384604;19;20934;-70
2023/06/15 00:32:01;;;;;;;3.38;3.08;;;20.60;92.10;;;;;;7385581;19;20161;-70
2023/06/15 00:34:27;;;;;;;4.47;3.40;;;20.60;92.60;;;;;;7384589;19;20134;-70
2023/06/15 00:36:52;;;;;;;3.65;3.05;;;20.70;92.00;;;;;;7383217;19;20145;-70
2023/06/15 00:39:18;;;;;;;3.63;2.78;;;20.70;92.10;;;;;;7383762;19;20161;-70
2023/06/15 00:41:44;;;;;;;4.03;3.30;;;20.70;92.20;;;;;;7386432;19;20456;-70
2023/06/15 00:44:10;;;;;;;3.42;2.92;;;20.70;92.10;;;;;;7382736;19;20166;-69
2023/06/15 00:46:37;;;;;;;4.40;2.97;;;20.70;92.20;;;;;;7383658;19;20258;-69
2023/06/15 00:49:03;;;;;;;3.50;2.80;;;20.70;92.20;;;;;;7384700;19;20476;-69
2023/06/15 00:51:29;;;;;;;4.43;2.95;;;20.70;92.00;;;;;;7384382;19;20202;-69
2023/06/15 00:53:55;;;;;;;3.60;2.83;;;20.70;92.20;;;;;;7382792;19;20488;-69
2023/06/15 00:56:21;;;;;;;3.30;3.00;;;20.80;91.30;;;;;;7381991;19;20150;-69
2023/06/15 00:58:48;;;;;;;4.28;2.80;;;20.70;91.40;;;;;;7385834;19;20309;-70
2023/06/15 01:01:14;;;;;;;3.45;3.03;;;20.50;91.80;;;;;;7382778;19;20178;-69
2023/06/15 01:03:40;;;;;;;6.35;2.92;;;20.60;91.60;;;;;;7384173;19;20131;-69
2023/06/15 01:06:11;;;;;;;2.95;2.42;;;20.70;90.80;;;;;;7383667;19;20610;-69
2023/06/15 01:08:38;;;;;;;2.58;2.33;;;20.60;90.60;;;;;;7384321;19;20130;-69
2023/06/15 01:11:04;;;;;;;3.35;2.80;;;20.50;91.20;;;;;;7381414;19;20504;-69
2023/06/15 01:13:30;;;;;;;4.18;2.72;;;20.50;91.40;;;;;;7382617;19;20813;-70
2023/06/15 01:16:01;;;;;;;3.22;2.50;;;20.60;91.30;;;;;;7384351;19;20214;-70
2023/06/15 01:18:29;;;;;;;4.47;2.75;;;20.60;91.50;;;;;;7381855;19;20160;-71
2023/06/15 01:20:56;;;;;;;3.10;2.45;;;20.50;91.80;;;;;;7382472;19;20139;-68
2023/06/15 01:23:40;;;;;;;6.30;2.78;;;20.50;91.70;;;;;;7384985;19;20210;-68
2023/06/15 01:26:11;;;;;;;2.85;2.50;;;20.60;91.80;;;;;;7381807;19;20158;-69
2023/06/15 01:28:45;;;;;;;4.25;2.67;;;20.30;91.80;;;;;;7383733;19;20134;-69
2023/06/15 01:31:12;;;;;;;2.80;2.50;;;20.00;92.50;;;;;;7384429;19;20141;-69
2023/06/15 01:33:48;;;;;;;3.35;2.70;;;20.10;92.70;;;;;;7386961;19;20143;-68
2023/06/15 01:36:15;;;;;;;2.92;2.58;;;20.20;92.00;;;;;;7389017;19;20150;-68
2023/06/15 01:38:42;;;;;;;4.00;2.10;;;20.20;92.10;;;;;;7391577;19;20138;-69
2023/06/15 01:41:09;;;;;;;3.75;2.72;;;20.10;92.50;;;;;;7391875;19;20143;-70
2023/06/15 01:43:36;;;;;;;3.30;2.55;;;20.20;92.00;;;;;;7386803;19;20206;-69
2023/06/15 01:46:03;;;;;;;2.90;2.60;;;20.10;92.20;;;;;;7389600;19;20169;-69
2023/06/15 01:48:29;;;;;;;2.47;2.28;;;20.10;92.50;;;;;;7390585;19;20303;-67
2023/06/15 01:50:55;;;;;;;3.25;2.63;;;20.20;91.90;;;;;;7385458;19;20257;-68
2023/06/15 01:53:22;;;;;;;4.70;2.70;;;20.00;92.70;;;;;;7391439;19;20598;-69
2023/06/15 01:55:48;;;;;;;5.78;2.67;;;20.00;92.70;;;;;;7389615;19;20475;-68
2023/06/15 01:58:15;;;;;;;2.85;2.55;;;20.00;92.70;;;;;;7390822;19;20147;-70
2023/06/15 02:00:42;;;;;;;3.17;2.70;;;20.00;92.70;;;;;;7388602;19;20133;-70
2023/06/15 02:03:08;;;;;;;3.53;2.38;;;20.10;92.40;;;;;;7387720;19;20134;-69
2023/06/15 02:05:39;;;;;;;2.85;2.53;;;20.10;92.50;;;;;;7389961;19;20137;-70
2023/06/15 02:08:06;;;;;;;3.63;2.20;;;19.90;92.90;;;;;;7390348;19;20168;-69
2023/06/15 02:10:32;;;;;;;3.60;2.70;;;19.90;93.30;;;;;;7385831;19;20168;-70
2023/06/15 02:12:57;;;;;;;5.57;2.55;;;20.00;93.10;;;;;;7388065;19;20162;-70
2023/06/15 02:15:23;;;;;;;2.60;2.40;;;20.00;92.80;;;;;;7388799;19;20206;-69
2023/06/15 02:18:00;;;;;;;3.50;2.30;;;19.90;92.80;;;;;;7390108;19;20135;-70
2023/06/15 02:20:29;;;;;;;3.45;2.83;;;19.90;92.90;;;;;;7388903;19;20201;-72
2023/06/15 02:22:57;;;;;;;3.55;2.53;;;19.80;93.40;;;;;;7387856;19;20167;-70
2023/06/15 02:25:30;;;;;;;3.88;2.70;;;19.60;93.70;;;;;;7389942;19;20218;-70
2023/06/15 02:27:56;;;;;;;4.03;2.50;;;19.60;94.10;;;;;;7390089;19;20317;-70
2023/06/15 02:30:26;;;;;;;4.43;2.47;;;19.40;94.40;;;;;;7387618;19;20160;-70
2023/06/15 02:32:53;;;;;;;3.13;2.80;;;19.10;94.90;;;;;;7388723;19;20253;-69
2023/06/15 02:35:20;;;;;;;3.03;2.60;;;19.10;95.50;;;;;;7391019;19;20131;-69
2023/06/15 02:37:46;;;;;;;2.58;2.30;;;19.20;95.40;;;;;;7385380;19;20142;-69
2023/06/15 02:40:12;;;;;;;2.70;2.50;;;19.30;95.30;;;;;;7387556;19;20134;-71
2023/06/15 02:42:38;;;;;;;3.33;2.72;;;19.50;94.80;;;;;;7387188;19;20547;-69
2023/06/15 02:45:06;;;;;;;3.00;2.40;;;19.60;94.70;;;;;;7387219;19;20178;-69
2023/06/15 02:47:33;;;;;;;4.97;3.05;;;19.50;94.90;;;;;;7386458;19;20139;-70
2023/06/15 02:49:59;;;;;;;3.35;2.50;;;19.60;94.70;;;;;;7385396;19;20142;-68
2023/06/15 02:52:31;;;;;;;3.13;2.60;;;19.50;94.60;;;;;;7387017;19;20167;-70
2023/06/15 02:55:02;;;;;;;3.67;2.65;;;19.40;94.70;;;;;;7389240;19;20627;-68
2023/06/15 02:57:28;;;;;;;4.05;2.63;;;19.10;95.50;;;;;;7382975;19;20146;-71
2023/06/15 02:59:54;;;;;;;3.00;2.35;;;18.90;96.00;;;;;;7379572;19;20138;-69
2023/06/15 03:02:23;;;;;;;3.78;3.28;;;18.80;96.20;;;;;;7389055;19;20170;-70
2023/06/15 03:04:50;;;;;;;2.90;2.38;;;18.60;96.80;;;;;;7388516;19;20176;-70
2023/06/15 03:07:16;;;;;;;6.10;2.47;;;18.70;97.00;;;;;;7387784;19;20448;-69
2023/06/15 03:09:50;;;;;;;3.45;2.47;;;18.60;97.20;;;;;;7384322;19;20519;-70
2023/06/15 03:12:17;;;;;;;3.72;2.70;;;18.80;97.60;;;;;;7388197;19;20501;-70
2023/06/15 03:14:44;;;;;;;3.75;2.65;;;19.10;97.10;;;;;;7388946;19;20471;-69
2023/06/15 03:17:12;;;;;;;3.38;2.63;;;19.30;96.90;;;;;;7384146;19;20586;-69
2023/06/15 03:19:39;;;;;;;3.55;2.85;;;19.40;97.10;;;;;;7389488;19;20143;-69
2023/06/15 03:22:07;;;;;;;5.10;2.88;;;19.30;97.10;;;;;;7389127;19;20180;-69
2023/06/15 03:24:33;;;;;;;3.47;2.83;;;19.10;97.50;;;;;;7384541;19;20607;-70
2023/06/15 03:27:03;;;;;;;2.90;2.47;;;19.10;97.60;;;;;;7385986;19;20155;-70
2023/06/15 03:29:29;;;;;;;3.60;2.75;;;19.20;97.50;;;;;;7387211;19;20885;-69
2023/06/15 03:31:56;;;;;;;3.28;2.67;;;19.30;97.20;;;;;;7386567;19;20130;-70
2023/06/15 03:34:22;;;;;;;3.20;2.60;;;19.30;97.20;;;;;;7385599;19;20153;-69
2023/06/15 03:36:51;;;;;;;3.97;2.80;;;19.30;97.20;;;;;;7386538;19;20518;-70
2023/06/15 03:39:20;;;;;;;3.78;2.67;;;19.30;97.30;;;;;;7386798;19;20683;-69
2023/06/15 03:41:46;;;;;;;3.85;2.53;;;19.00;98.20;;;;;;7382660;19;20192;-69
2023/06/15 03:44:12;;;;;;;5.57;2.65;;;19.00;98.30;;;;;;7382091;19;20194;-69
2023/06/15 03:46:37;;;;;;;3.20;2.63;;;19.00;98.30;;;;;;7388340;19;20155;-69
2023/06/15 03:49:03;;;;;;;4.15;2.85;;;19.10;98.30;;;;;;7386237;19;20142;-70
2023/06/15 03:51:29;;;;;;;3.55;2.78;;;19.20;98.20;;;;;;7384693;19;20165;-70
2023/06/15 03:53:55;;;;;;;3.83;2.72;;;19.30;97.80;;;;;;7388606;19;20142;-68
2023/06/15 03:56:21;;;;;;;5.28;2.75;;;19.40;97.80;;;;;;7386069;19;20141;-69
2023/06/15 03:58:46;;;;;;;3.00;2.75;;;19.40;97.90;;;;;;7385237;19;20121;-69
2023/06/15 04:01:15;;;;;;;3.78;3.10;;;19.50;98.00;;;;;;7386978;19;20508;-70
2023/06/15 04:03:40;;;;;;;3.47;2.72;;;19.50;98.10;;;;;;7388116;19;20213;-69
2023/06/15 04:06:06;;;;;;;3.40;3.08;;;19.50;98.40;;;;;;7385331;19;20863;-69
2023/06/15 04:08:32;;;;;;;3.30;2.58;;;19.50;98.10;;;;;;7387478;19;20130;-68
2023/06/15 04:10:59;;;;;;;3.25;2.95;;;19.50;98.20;;;;;;7385926;19;20135;-68
2023/06/15 04:13:25;;;;;;;5.93;3.08;;;19.50;98.20;;;;;;7387741;19;20142;-70
2023/06/15 04:15:55;;;;;;;4.95;2.78;;;19.60;98.20;;;;;;7385831;19;20927;-70
2023/06/15 04:18:21;;;;;;;4.40;2.58;;;19.60;98.20;;;;;;7389155;19;20170;-70
2023/06/15 04:20:47;;;;;;;2.95;2.65;;;19.60;98.10;;;;;;7385841;19;20202;-69
2023/06/15 04:23:13;;;;;;;3.65;3.17;;;19.60;98.50;;;;;;7387830;19;20147;-70
2023/06/15 04:25:40;;;;;;;3.15;2.85;;;19.70;98.00;;;;;;7386484;19;20508;-69
2023/06/15 04:28:10;;;;;;;3.95;2.67;;;19.60;98.60;;;;;;7385956;19;20135;-71
2023/06/15 04:30:40;;;;;;;4.55;2.80;;;19.60;98.40;;;;;;7387965;19;20138;-70
2023/06/15 04:33:13;;;;;;;4.05;3.10;;;19.80;98.10;;;;;;7382544;19;20144;-70
2023/06/15 04:35:46;;;;;;;4.40;3.00;;;19.80;97.60;;;;;;7387745;19;20229;-69
2023/06/15 04:38:15;;;;;;;5.75;3.38;;;19.80;97.70;;;;;;7384129;19;20516;-70
2023/06/15 04:40:41;;;;;;;3.30;2.67;;;19.80;97.90;;;;;;7385530;19;20603;-70
2023/06/15 04:43:08;;;;;;;5.55;3.13;;;19.90;97.50;;;;;;7384049;19;20162;-69
2023/06/15 04:45:35;;;;;;;4.65;2.90;;;19.90;97.20;;;;;;7385569;19;20146;-69
2023/06/15 04:48:00;;;;;;;4.25;2.67;;;19.90;97.60;;;;;;7386320;19;20169;-69
2023/06/15 04:50:26;;;;;;;5.60;2.83;;;19.90;97.20;;;;;;7383861;19;20143;-69
2023/06/15 04:52:52;;;;;;;3.15;2.55;;;19.90;97.30;;;;;;7383165;19;20142;-70
2023/06/15 04:55:17;;;;;;;4.10;3.17;;;19.80;97.80;;;;;;7384692;19;20147;-70
2023/06/15 04:57:44;;;;;;;3.88;2.78;;;19.90;98.00;;;;;;7381270;19;20144;-70
2023/06/15 05:00:11;;;;;;;4.85;3.20;;;19.80;97.60;;;;;;7384418;19;20768;-70
2023/06/15 05:02:36;;;;;;;4.63;3.00;;;19.70;98.00;;;;;;7382383;19;20158;-70
2023/06/15 05:05:04;;;;;;;4.57;3.50;;;19.70;98.20;;;;;;7385539;19;20155;-70
2023/06/15 05:07:30;;;;;;;3.58;3.08;;;19.80;98.10;;;;;;7383279;19;20153;-69
2023/06/15 05:09:56;;;;;;;7.78;2.75;;;19.80;98.20;;;;;;7384932;19;20142;-69
2023/06/15 05:12:22;;;;;;;3.22;2.83;;;19.80;98.70;;;;;;7392794;19;20598;-70
2023/06/15 05:14:48;;;;;;;4.88;3.25;;;19.80;98.30;;;;;;7393057;19;20152;-70
2023/06/15 05:17:13;;;;;;;3.25;2.58;;;19.70;98.50;;;;;;7388296;19;20142;-70
2023/06/15 05:19:39;;;;;;;8.77;3.20;;;19.70;98.70;;;;;;7390424;19;20177;-70
2023/06/15 05:22:06;;;;;;;4.93;3.22;;;19.80;98.40;;;;;;7390667;19;20198;-69
2023/06/15 05:24:32;;;;;;;3.58;2.90;;;19.80;98.30;;;;;;7387885;19;20138;-70
2023/06/15 05:26:58;;;;;;;3.55;2.65;;;19.70;98.70;;;;;;7390070;19;20139;-70
2023/06/15 05:29:23;;;;;;;6.50;2.92;;;19.80;98.00;;;;;;7387293;19;20483;-71
2023/06/15 05:31:49;;;;;;;3.25;2.65;;;19.70;98.10;;;;;;7387308;19;20161;-71
2023/06/15 05:34:15;;;;;;;4.85;2.78;;;19.70;98.50;;;;;;7390058;19;20157;-70
2023/06/15 05:36:41;;;;;;;3.85;2.92;;;19.90;97.80;;;;;;7388413;19;20145;-69
2023/06/15 05:39:07;;;;;;;3.88;2.60;;;19.80;97.70;;;;;;7389692;19;20154;-69
2023/06/15 05:41:33;;;;;;;3.25;2.40;;;19.70;98.00;;;;;;7385407;19;20165;-69
2023/06/15 05:44:00;;;;;;;5.35;2.67;;;19.80;97.90;;;;;;7384764;19;20150;-69
2023/06/15 05:46:25;;;;;;;5.40;2.88;;;19.80;98.10;;;;;;7386497;19;20143;-70
2023/06/15 05:48:51;;;;;;;4.60;3.08;;;19.90;97.80;;;;;;7390756;19;20122;-70
2023/06/15 05:51:17;;;;;;;3.42;3.00;;;20.00;97.30;;;;;;7388911;19;20146;-69
2023/06/15 05:53:43;;;;;;;5.15;3.47;;;19.90;97.40;;;;;;7389366;19;20131;-70
2023/06/15 05:56:09;;;;;;;5.03;2.75;;;19.80;97.60;;;;;;7389189;19;20142;-70
2023/06/15 05:58:34;;;;;;;4.90;3.00;;;19.90;97.60;;;;;;7388814;19;20821;-69
2023/06/15 06:01:03;;;;;;;4.13;3.08;;;19.80;97.50;;;;;;7387430;19;20145;-70
2023/06/15 06:03:29;;;;;;;3.40;3.10;;;19.90;97.60;;;;;;7388052;19;20489;-70
2023/06/15 06:05:55;;;;;;;8.55;2.95;;;19.90;97.60;;;;;;7390503;19;20198;-70
2023/06/15 06:08:21;;;;;;;3.85;3.10;;;19.90;97.50;;;;;;7389445;19;20142;-70
2023/06/15 06:10:48;;;;;;;3.70;2.58;;;19.90;97.90;;;;;;7386815;19;20122;-69
2023/06/15 06:13:13;;;;;;;6.47;3.13;;;20.60;96.70;;;;;;7389451;19;20206;-71
2023/06/15 06:15:39;;;;;;;3.22;2.70;;;22.40;93.70;;;;;;7387263;19;20147;-70
2023/06/15 06:18:05;;;;;;;3.08;2.80;;;24.00;90.90;;;;;;7384967;19;20149;-71
2023/06/15 06:20:35;;;;;;;5.32;2.90;;;24.60;88.40;;;;;;7386246;19;20496;-71
2023/06/15 06:23:03;;;;;;;3.80;2.95;;;24.80;87.00;;;;;;7390283;19;20134;-71
2023/06/15 06:25:29;;;;;;;4.40;3.22;;;25.40;86.20;;;;;;7389390;19;20134;-72
2023/06/15 06:27:54;;;;;;;4.47;3.45;;;27.20;81.10;;;;;;7384811;19;20709;-71
2023/06/15 06:30:20;;;;;;;4.03;3.10;;;28.00;77.40;;;;;;7387135;19;20135;-71
2023/06/15 06:32:46;;;;;;;5.63;3.55;;;28.00;75.80;;;;;;7385874;19;20143;-72
2023/06/15 06:35:15;;;;;;;4.18;3.75;;;27.90;75.90;;;;;;7387475;19;20142;-71
2023/06/15 06:37:40;;;;;;;4.22;3.05;;;28.20;75.30;;;;;;7385753;19;20158;-72
2023/06/15 06:40:07;;;;;;;6.72;3.47;;;28.20;74.20;;;;;;7386977;19;20173;-72
2023/06/15 06:42:34;;;;;;;4.18;3.00;;;28.50;73.70;;;;;;7388460;19;20158;-72
2023/06/15 06:45:00;;;;;;;4.85;2.63;;;29.00;72.60;;;;;;7389553;19;20131;-75
2023/06/15 06:47:25;;;;;;;3.63;2.85;;;28.70;72.40;;;;;;7386928;19;20479;-75
2023/06/15 06:49:52;;;;;;;3.25;2.88;;;28.90;72.20;;;;;;7386250;19;20145;-77
2023/06/15 06:52:18;;;;;;;3.95;2.90;;;28.80;72.00;;;;;;7388680;19;20175;-77
2023/06/15 06:54:44;;;;;;;4.80;2.92;;;28.60;71.50;;;;;;7388970;19;20122;-77
2023/06/15 06:57:10;;;;;;;3.95;2.67;;;29.00;70.70;;;;;;7384617;19;20207;-76
2023/06/15 06:59:36;;;;;;;4.60;2.70;;;28.70;70.30;;;;;;7390614;19;20135;-77
2023/06/15 07:02:02;;;;;;;3.22;2.50;;;28.90;70.30;;;;;;7386646;19;20130;-77
2023/06/15 07:04:27;;;;;;;2.65;2.45;;;29.30;69.40;;;;;;7387526;19;20484;-76
2023/06/15 07:06:53;;;;;;;3.00;2.70;;;29.10;69.40;;;;;;7386825;19;20150;-76
2023/06/15 07:09:19;;;;;;;3.08;2.70;;;28.80;69.70;;;;;;7388468;19;20142;-76
2023/06/15 07:11:45;;;;;;;2.95;2.42;;;28.40;70.30;;;;;;7388640;19;20151;-77
2023/06/15 07:14:11;;;;;;;4.05;3.17;;;28.10;71.70;;;;;;7385549;19;20173;-77
2023/06/15 07:16:37;;;;;;;3.92;3.10;;;27.90;71.70;;;;;;7388839;19;20131;-77
2023/06/15 07:19:02;;;;;;;4.03;3.13;;;27.70;72.40;;;;;;7389161;19;20134;-76
2023/06/15 07:21:30;;;;;;;5.32;3.63;;;27.70;72.80;;;;;;7385764;19;20138;-77
2023/06/15 07:23:56;;;;;;;4.50;3.33;;;27.70;72.80;;;;;;7388161;19;20159;-76
2023/06/15 07:26:22;;;;;;;4.82;3.00;;;27.90;72.50;;;;;;7385927;19;20134;-76
2023/06/15 07:28:48;;;;;;;4.13;3.17;;;27.60;73.30;;;;;;7388720;19;20469;-76
2023/06/15 07:31:13;;;;;;;4.38;3.10;;;27.90;72.60;;;;;;7383161;19;20146;-76
2023/06/15 07:33:39;;;;;;;4.32;3.13;;;27.40;73.80;;;;;;7385896;19;20545;-74
2023/06/15 07:36:05;;;;;;;3.95;3.17;;;27.90;72.50;;;;;;7387808;19;20199;-76
2023/06/15 07:38:31;;;;;;;6.50;2.85;;;27.60;73.80;;;;;;7388768;19;20149;-74
2023/06/15 07:40:57;;;;;;;3.78;2.85;;;27.70;73.10;;;;;;7384594;19;20140;-75
2023/06/15 07:43:23;;;;;;;3.03;2.50;;;27.50;72.60;;;;;;7384959;19;20214;-74
2023/06/15 07:45:49;;;;;;;4.28;2.97;;;27.10;73.00;;;;;;7387823;19;20127;-76
2023/06/15 07:48:15;;;;;;;5.40;2.75;;;26.80;73.70;;;;;;7386653;19;20150;-74
2023/06/15 07:50:43;;;;;;;4.10;2.70;;;26.80;74.30;;;;;;7382758;19;20147;-75
2023/06/15 07:53:11;;;;;;;4.70;3.00;;;26.80;74.50;;;;;;7385897;19;20149;-75
2023/06/15 07:55:37;;;;;;;3.58;2.80;;;26.90;74.40;;;;;;7386753;19;20147;-74
2023/06/15 07:58:03;;;;;;;6.40;3.60;;;27.20;73.80;;;;;;7383889;19;20131;-75
2023/06/15 08:00:28;;;;;;;4.22;3.40;;;27.50;73.70;;;;;;7385976;19;20155;-75
2023/06/15 08:02:54;;;;;;;4.07;3.30;;;27.70;72.70;;;;;;7385045;19;20151;-76
2023/06/15 08:05:22;;;;;;;3.60;3.00;;;27.90;72.50;;;;;;7388157;19;20461;-76
2023/06/15 08:07:48;;;;;;;2.90;2.60;;;28.30;72.30;;;;;;7385414;19;20134;-76
2023/06/15 08:10:15;;;;;;;2.97;2.55;;;28.40;71.20;;;;;;7385504;19;20134;-76
2023/06/15 08:12:40;;;;;;;3.47;2.85;;;28.20;70.90;;;;;;7385906;19;20134;-75
2023/06/15 08:15:06;;;;;;;5.15;2.90;;;27.60;71.60;;;;;;7384067;19;20158;-76
2023/06/15 08:17:32;;;;;;;4.45;2.80;;;27.30;72.60;;;;;;7380961;19;20181;-76
2023/06/15 08:19:58;;;;;;;5.03;2.55;;;27.20;72.30;;;;;;7384475;19;20176;-77
2023/06/15 08:22:24;;;;;;;4.20;2.90;;;27.00;72.20;;;;;;7386349;19;20246;-76
2023/06/15 08:24:50;;;;;;;4.55;2.55;;;27.00;73.00;;;;;;7383478;19;20146;-76
2023/06/15 08:27:16;;;;;;;3.78;2.90;;;27.30;73.70;;;;;;7382540;19;20130;-77
2023/06/15 08:29:43;;;;;;;3.55;2.88;;;27.80;73.10;;;;;;7384425;19;20138;-78
2023/06/15 08:32:13;;;;;;;3.42;2.65;;;27.90;72.20;;;;;;7382942;19;20489;-76
2023/06/15 08:34:41;;;;;;;3.92;3.05;;;27.90;72.30;;;;;;7387845;19;20803;-79
2023/06/15 08:37:08;;;;;;;3.47;2.92;;;27.80;72.90;;;;;;7382431;19;20150;-77
2023/06/15 08:39:34;;;;;;;5.03;2.78;;;27.60;72.60;;;;;;7385720;19;20143;-75
2023/06/15 08:42:02;;;;;;;4.25;2.80;;;27.30;73.00;;;;;;7385389;19;20239;-76
2023/06/15 08:44:30;;;;;;;4.90;2.72;;;27.00;73.60;;;;;;7389374;19;20138;-75
2023/06/15 08:46:57;;;;;;;4.47;2.80;;;26.50;74.80;;;;;;7390057;19;20600;-78
2023/06/15 08:49:25;;;;;;;3.92;2.90;;;26.30;75.70;;;;;;7389718;19;20230;-77
2023/06/15 08:51:53;;;;;;;4.95;3.10;;;26.30;75.80;;;;;;7391194;19;20234;-79
2023/06/15 08:54:21;;;;;;;3.47;2.78;;;26.10;76.20;;;;;;7391582;19;20855;-78
2023/06/15 08:56:46;;;;;;;5.47;2.75;;;26.00;76.60;;;;;;7387829;19;20206;-78
2023/06/15 08:59:12;;;;;;;4.53;2.53;;;26.30;76.50;;;;;;7392234;19;20150;-79
2023/06/15 09:01:41;;;;;;;6.72;3.25;;;26.60;75.70;;;;;;7389090;19;20896;-78
2023/06/15 09:04:07;;;;;;;3.78;3.10;;;26.50;75.70;;;;;;7391054;19;20150;-78
2023/06/15 09:06:36;;;;;;;4.00;2.72;;;26.20;77.10;;;;;;7387867;19;20149;-79
2023/06/15 09:09:03;;;;;;;3.55;2.78;;;26.10;76.40;;;;;;7391204;19;20198;-78
2023/06/15 09:11:29;;;;;;;3.97;2.88;;;26.20;76.40;;;;;;7389650;19;20144;-75
2023/06/15 09:13:55;;;;;;;4.22;2.53;;;26.00;76.80;;;;;;7392929;19;20134;-76
2023/06/15 09:16:21;;;;;;;8.75;4.47;;;26.00;76.50;;;;;;7387723;19;20151;-76
2023/06/15 09:18:51;;;;;;;5.05;3.30;;;26.00;76.20;;;;;;7392635;19;20138;-78
2023/06/15 09:21:18;;;;;;;3.63;3.33;;;25.80;76.30;;;;;;7389466;19;20154;-77
2023/06/15 09:23:46;;;;;;;3.67;3.25;;;25.80;76.40;;;;;;7392298;19;20130;-77
2023/06/15 09:26:27;;;;;;;3.45;3.08;;;25.80;76.70;;;;;;7397143;19;20155;-77
2023/06/15 09:28:57;;;;;;;4.32;3.05;;;25.70;76.30;;;;;;7393898;19;20134;-76
2023/06/15 09:31:36;;;;;;;3.60;2.90;;;25.70;76.60;;;;;;7391244;19;20202;-79
2023/06/15 09:34:10;;;;;;;5.18;2.60;;;25.70;76.20;;;;;;7387260;19;20167;-78
2023/06/15 09:36:49;;;;;;;3.80;2.60;;;25.70;75.80;;;;;;7392916;19;20135;-78
2023/06/15 09:39:22;;;;;;;2.92;2.42;;;25.80;76.00;;;;;;7395656;19;20500;-77
2023/06/15 09:41:58;;;;;;;2.80;2.17;;;25.80;74.60;;;;;;7394170;19;20160;-79
2023/06/15 09:44:25;;;;;;;2.75;2.30;;;25.70;73.60;;;;;;7395738;19;20146;-77
2023/06/15 09:46:57;;;;;;;2.38;2.17;;;25.70;72.40;;;;;;7393421;19;20138;-78
2023/06/15 09:49:27;;;;;;;2.60;2.40;;;25.70;73.60;;;;;;7393959;19;20131;-79
2023/06/15 09:51:54;;;;;;;2.60;2.20;;;25.80;74.40;;;;;;7391312;19;20155;-77
2023/06/15 09:54:24;;;;;;;2.97;2.38;;;25.60;73.30;;;;;;7396203;19;20145;-75
2023/06/15 09:56:52;;;;;;;2.78;2.22;;;25.50;73.70;;;;;;7392030;19;20127;-75
2023/06/15 09:59:19;;;;;;;3.83;2.50;;;25.60;73.20;;;;;;7390637;19;20148;-77
2023/06/15 10:01:49;;;;;;;2.97;2.17;;;25.80;73.40;;;;;;7386498;19;20217;-76
2023/06/15 10:04:18;;;;;;;3.83;2.40;;;26.10;71.30;;;;;;7393357;19;20142;-76
2023/06/15 10:06:48;;;;;;;3.00;2.40;;;26.20;70.90;;;;;;7388315;19;20692;-77
2023/06/15 10:09:19;;;;;;;3.50;2.65;;;26.00;71.10;;;;;;7390204;19;20160;-76
2023/06/15 10:11:48;;;;;;;3.53;2.15;;;25.70;71.60;;;;;;7390850;19;20164;-77
2023/06/15 10:14:56;;;;;;;2.47;2.05;;;25.60;71.90;;;;;;7388752;19;20155;-78
2023/06/15 10:17:30;;;;;;;2.90;2.08;;;25.70;70.30;;;;;;7385014;19;20135;-79
2023/06/15 10:20:08;;;;;;;4.70;2.63;;;25.70;70.40;;;;;;7384989;19;20129;-77
2023/06/15 10:22:51;;;;;;;2.92;2.47;;;25.50;71.50;;;;;;7381006;19;20657;-77
2023/06/15 10:25:19;;;;;;;4.97;2.10;;;25.80;71.80;;;;;;7383436;19;20130;-79
2023/06/15 10:27:44;;;;;;;3.28;2.58;;;26.10;70.80;;;;;;7386502;19;20241;-79
2023/06/15 10:30:44;;;;;;;3.03;2.65;;;26.00;70.20;;;;;;7386563;19;20624;-78
2023/06/15 10:33:42;;;;;;;2.83;2.53;;;26.10;70.70;;;;;;7382511;19;20142;-79
2023/06/15 10:36:20;;;;;;;4.25;2.50;;;26.20;70.70;;;;;;7386304;19;20161;-74
2023/06/15 10:39:03;;;;;;;2.75;2.40;;;26.20;70.30;;;;;;7390415;19;20194;-76
2023/06/15 10:41:29;;;;;;;3.08;2.75;;;26.10;70.00;;;;;;7387716;19;20145;-75
2023/06/15 10:43:58;;;;;;;5.88;2.30;;;26.30;69.30;;;;;;7384323;19;20181;-74
2023/06/15 10:46:28;;;;;;;3.25;2.38;;;26.10;69.30;;;;;;7389708;19;20150;-75
2023/06/15 10:48:54;;;;;;;3.78;2.60;;;25.80;70.20;;;;;;7387610;19;20218;-74
2023/06/15 10:51:25;;;;;;;5.20;2.50;;;25.50;70.00;;;;;;7389178;19;20601;-76
2023/06/15 10:53:50;;;;;;;3.80;2.60;;;25.30;70.30;;;;;;7387675;19;20162;-75
2023/06/15 10:56:27;;;;;;;3.50;2.22;;;25.40;70.60;;;;;;7389553;19;20155;-75
2023/06/15 10:58:59;;;;;;;2.67;2.42;;;25.40;68.90;;;;;;7387588;19;20130;-74
2023/06/15 11:01:28;;;;;;;3.15;2.08;;;25.50;70.00;;;;;;7387695;19;20143;-74
2023/06/15 11:03:54;;;;;;;2.67;2.13;;;25.70;69.70;;;;;;7386769;19;20165;-74
2023/06/15 11:06:22;;;;;;;2.60;2.20;;;25.70;69.20;;;;;;7384606;19;20606;-75
2023/06/15 11:08:50;;;;;;;4.28;2.60;;;25.30;69.90;;;;;;7389203;19;20489;-75
2023/06/15 11:11:30;;;;;;;2.58;2.38;;;25.20;71.00;;;;;;7388565;19;20154;-75
2023/06/15 11:13:59;;;;;;;4.43;2.55;;;25.40;69.90;;;;;;7386130;19;20138;-74
2023/06/15 11:16:28;;;;;;;3.65;2.30;;;25.60;69.40;;;;;;7385544;19;20617;-75
2023/06/15 11:19:12;;;;;;;2.50;2.30;;;25.80;68.90;;;;;;7387406;19;20155;-75
2023/06/15 11:21:44;;;;;;;3.17;2.53;;;26.10;67.80;;;;;;7388560;19;20146;-74
2023/06/15 11:24:13;;;;;;;3.40;2.50;;;26.20;67.70;;;;;;7386273;19;20213;-75
2023/06/15 11:26:48;;;;;;;4.05;3.15;;;26.40;68.30;;;;;;7386495;19;20155;-74
2023/06/15 11:29:22;;;;;;;3.05;2.75;;;26.50;67.80;;;;;;7389175;19;20146;-76
2023/06/15 11:31:49;;;;;;;2.75;2.20;;;26.60;66.50;;;;;;7388161;19;20221;-75
2023/06/15 11:34:15;;;;;;;2.85;2.25;;;26.30;66.10;;;;;;7386164;19;20153;-74
2023/06/15 11:36:41;;;;;;;5.93;2.50;;;26.10;66.00;;;;;;7384543;19;20142;-74
2023/06/15 11:39:18;;;;;;;3.28;2.38;;;26.10;66.40;;;;;;7387652;19;20142;-75
2023/06/15 11:41:50;;;;;;;2.63;2.28;;;26.10;66.40;;;;;;7386829;19;20135;-73
2023/06/15 11:44:18;;;;;;;2.60;2.05;;;26.20;66.50;;;;;;7385439;19;20146;-75
2023/06/15 11:46:55;;;;;;;3.55;2.58;;;26.10;65.30;;;;;;7385135;19;20150;-74
2023/06/15 11:49:21;;;;;;;3.03;2.58;;;26.10;65.70;;;;;;7387181;19;20138;-75
2023/06/15 11:51:47;;;;;;;3.15;2.05;;;26.30;64.90;;;;;;7387211;19;20168;-73
2023/06/15 11:54:15;;;;;;;2.35;2.05;;;26.40;64.10;;;;;;7384262;19;20143;-73
2023/06/15 11:56:51;;;;;;;2.33;1.70;;;26.50;63.50;;;;;;7386661;19;20506;-74
2023/06/15 11:59:19;;;;;;;2.95;2.47;;;26.50;64.00;;;;;;7386397;19;20488;-75
2023/06/15 12:01:45;;;;;;;2.25;2.05;;;26.50;65.60;;;;;;7385805;19;20130;-75
2023/06/15 12:04:15;;;;;;;2.40;2.20;;;26.40;66.40;;;;;;7385519;19;20127;-75
2023/06/15 12:06:48;;;;;;;3.08;2.20;;;26.30;67.10;;;;;;7385670;19;20142;-74
2023/06/15 12:09:16;;;;;;;2.65;2.30;;;26.10;67.60;;;;;;7384815;19;20202;-75
2023/06/15 12:11:43;;;;;;;2.53;2.30;;;26.10;68.10;;;;;;7384844;19;20134;-74
2023/06/15 12:14:20;;;;;;;2.97;2.40;;;25.90;68.50;;;;;;7384405;19;20183;-77
2023/06/15 12:16:51;;;;;;;2.88;2.20;;;25.90;68.50;;;;;;7386994;19;20143;-73
2023/06/15 12:19:27;;;;;;;2.28;2.08;;;25.90;68.80;;;;;;7384153;19;21182;-74
2023/06/15 12:21:57;;;;;;;4.15;2.50;;;26.00;67.90;;;;;;7384507;19;20176;-73
2023/06/15 12:24:28;;;;;;;2.55;2.33;;;25.90;68.50;;;;;;7384850;19;20134;-74
2023/06/15 12:26:57;;;;;;;2.92;2.35;;;25.80;67.70;;;;;;7383837;19;20615;-73
2023/06/15 12:29:24;;;;;;;7.25;2.40;;;25.80;67.80;;;;;;7384781;19;20623;-75
2023/06/15 12:31:52;;;;;;;4.72;2.60;;;25.70;67.60;;;;;;7384677;19;20163;-77
2023/06/15 12:34:24;;;;;;;2.92;1.98;;;25.70;67.00;;;;;;7386824;19;20142;-75
2023/06/15 12:36:51;;;;;;;3.33;2.40;;;25.80;65.10;;;;;;7378178;19;20148;-75
2023/06/15 12:39:20;;;;;;;2.38;2.13;;;25.90;66.70;;;;;;7385047;19;20588;-76
2023/06/15 12:41:46;;;;;;;2.42;2.20;;;26.10;67.20;;;;;;7382826;19;20137;-75
2023/06/15 12:44:12;;;;;;;2.40;2.20;;;26.30;67.00;;;;;;7375746;19;20147;-76
2023/06/15 12:46:39;;;;;;;2.55;2.33;;;26.40;66.00;;;;;;7375268;19;20190;-76
2023/06/15 12:49:06;;;;;;;3.15;2.80;;;26.50;65.10;;;;;;7384692;19;20165;-76
2023/06/15 12:51:32;;;;;;;2.50;2.17;;;26.50;64.70;;;;;;7382307;19;20144;-76